sensor_id;sensor_type;location;lat;lon;timestamp;P1;durP1;ratioP1;P2;durP2;ratioP2
56760;SDS011;42633;44.494;11.356;2022-10-31T00:02:58;9.18;;;5.38;;
56760;SDS011;42633;44.494;11.356;2022-10-31T00:06:06;17.15;;;7.47;;
56760;SDS011;42633;44.494;11.356;2022-10-31T00:09:20;22.92;;;6.50;;
56760;SDS011;42633;44.494;11.356;2022-10-31T00:12:25;13.52;;;5.57;;
56760;SDS011;42633;44.494;11.356;2022-10-31T00:15:39;14.50;;;5.35;;
56760;SDS011;42633;44.494;11.356;2022-10-31T00:18:44;7.72;;;4.78;;
56760;SDS011;42633;44.494;11.356;2022-10-31T00:21:55;8.95;;;4.72;;
56760;SDS011;42633;44.494;11.356;2022-10-31T00:24:59;9.68;;;4.38;;
56760;SDS011;42633;44.494;11.356;2022-10-31T00:28:05;7.85;;;4.43;;
56760;SDS011;42633;44.494;11.356;2022-10-31T00:31:12;8.27;;;4.40;;
56760;SDS011;42633;44.494;11.356;2022-10-31T00:34:18;11.30;;;4.78;;
56760;SDS011;42633;44.494;11.356;2022-10-31T00:37:23;12.07;;;4.15;;
56760;SDS011;42633;44.494;11.356;2022-10-31T00:40:28;15.38;;;4.88;;
56760;SDS011;42633;44.494;11.356;2022-10-31T00:43:33;10.52;;;5.75;;
56760;SDS011;42633;44.494;11.356;2022-10-31T00:46:37;11.68;;;5.53;;
56760;SDS011;42633;44.494;11.356;2022-10-31T00:49:41;8.63;;;5.00;;
56760;SDS011;42633;44.494;11.356;2022-10-31T00:52:45;8.68;;;4.75;;
56760;SDS011;42633;44.494;11.356;2022-10-31T00:55:52;9.57;;;4.50;;
56760;SDS011;42633;44.494;11.356;2022-10-31T00:59:00;8.80;;;4.30;;
56760;SDS011;42633;44.494;11.356;2022-10-31T01:02:10;8.35;;;4.85;;
56760;SDS011;42633;44.494;11.356;2022-10-31T01:05:15;11.77;;;5.00;;
56760;SDS011;42633;44.494;11.356;2022-10-31T01:11:28;8.15;;;4.15;;
56760;SDS011;42633;44.494;11.356;2022-10-31T01:14:32;7.70;;;3.55;;
56760;SDS011;42633;44.494;11.356;2022-10-31T01:17:36;6.63;;;4.25;;
56760;SDS011;42633;44.494;11.356;2022-10-31T01:20:42;8.93;;;3.83;;
56760;SDS011;42633;44.494;11.356;2022-10-31T01:23:46;7.88;;;4.22;;
56760;SDS011;42633;44.494;11.356;2022-10-31T01:26:52;7.90;;;4.72;;
56760;SDS011;42633;44.494;11.356;2022-10-31T01:30:00;7.57;;;4.18;;
56760;SDS011;42633;44.494;11.356;2022-10-31T01:33:05;9.20;;;4.50;;
56760;SDS011;42633;44.494;11.356;2022-10-31T01:39:21;7.15;;;4.40;;
56760;SDS011;42633;44.494;11.356;2022-10-31T01:42:26;15.43;;;5.82;;
56760;SDS011;42633;44.494;11.356;2022-10-31T01:45:31;9.68;;;4.38;;
56760;SDS011;42633;44.494;11.356;2022-10-31T01:48:35;8.80;;;4.28;;
56760;SDS011;42633;44.494;11.356;2022-10-31T01:51:41;10.23;;;4.20;;
56760;SDS011;42633;44.494;11.356;2022-10-31T01:54:58;10.75;;;4.57;;
56760;SDS011;42633;44.494;11.356;2022-10-31T01:58:09;10.23;;;4.68;;
56760;SDS011;42633;44.494;11.356;2022-10-31T02:01:23;7.88;;;3.28;;
56760;SDS011;42633;44.494;11.356;2022-10-31T02:04:29;9.18;;;4.60;;
56760;SDS011;42633;44.494;11.356;2022-10-31T02:07:39;10.50;;;4.70;;
56760;SDS011;42633;44.494;11.356;2022-10-31T02:11:08;8.73;;;4.07;;
56760;SDS011;42633;44.494;11.356;2022-10-31T02:14:14;7.95;;;4.90;;
56760;SDS011;42633;44.494;11.356;2022-10-31T02:17:19;9.20;;;4.25;;
56760;SDS011;42633;44.494;11.356;2022-10-31T02:20:25;7.15;;;4.57;;
56760;SDS011;42633;44.494;11.356;2022-10-31T02:34:38;8.13;;;4.63;;
56760;SDS011;42633;44.494;11.356;2022-10-31T02:45:17;11.77;;;5.65;;
56760;SDS011;42633;44.494;11.356;2022-10-31T02:48:28;10.55;;;4.82;;
56760;SDS011;42633;44.494;11.356;2022-10-31T02:54:40;7.38;;;4.68;;
56760;SDS011;42633;44.494;11.356;2022-10-31T02:57:46;12.95;;;4.65;;
56760;SDS011;42633;44.494;11.356;2022-10-31T03:11:28;9.55;;;4.75;;
56760;SDS011;42633;44.494;11.356;2022-10-31T03:18:21;7.45;;;4.47;;
56760;SDS011;42633;44.494;11.356;2022-10-31T03:21:33;8.38;;;4.38;;
56760;SDS011;42633;44.494;11.356;2022-10-31T03:24:44;6.72;;;4.03;;
56760;SDS011;42633;44.494;11.356;2022-10-31T03:27:51;8.75;;;4.63;;
56760;SDS011;42633;44.494;11.356;2022-10-31T03:30:56;8.73;;;4.80;;
56760;SDS011;42633;44.494;11.356;2022-10-31T03:34:02;9.55;;;4.20;;
56760;SDS011;42633;44.494;11.356;2022-10-31T03:37:09;7.75;;;4.00;;
56760;SDS011;42633;44.494;11.356;2022-10-31T03:40:14;10.90;;;4.70;;
56760;SDS011;42633;44.494;11.356;2022-10-31T03:43:26;9.70;;;4.43;;
56760;SDS011;42633;44.494;11.356;2022-10-31T03:46:33;8.35;;;4.45;;
56760;SDS011;42633;44.494;11.356;2022-10-31T03:49:38;9.15;;;4.13;;
56760;SDS011;42633;44.494;11.356;2022-10-31T03:55:52;8.30;;;4.95;;
56760;SDS011;42633;44.494;11.356;2022-10-31T03:59:05;12.65;;;5.00;;
56760;SDS011;42633;44.494;11.356;2022-10-31T04:02:19;12.07;;;4.78;;
56760;SDS011;42633;44.494;11.356;2022-10-31T04:05:27;10.75;;;4.47;;
56760;SDS011;42633;44.494;11.356;2022-10-31T04:08:38;7.03;;;4.00;;
56760;SDS011;42633;44.494;11.356;2022-10-31T04:11:52;11.82;;;4.63;;
56760;SDS011;42633;44.494;11.356;2022-10-31T04:15:27;15.57;;;4.97;;
56760;SDS011;42633;44.494;11.356;2022-10-31T04:18:33;9.88;;;3.28;;
56760;SDS011;42633;44.494;11.356;2022-10-31T04:21:39;7.72;;;3.40;;
56760;SDS011;42633;44.494;11.356;2022-10-31T04:24:47;10.32;;;4.35;;
56760;SDS011;42633;44.494;11.356;2022-10-31T04:27:54;10.43;;;4.27;;
56760;SDS011;42633;44.494;11.356;2022-10-31T04:31:00;9.00;;;4.00;;
56760;SDS011;42633;44.494;11.356;2022-10-31T04:34:06;7.90;;;3.88;;
56760;SDS011;42633;44.494;11.356;2022-10-31T04:37:16;10.40;;;4.22;;
56760;SDS011;42633;44.494;11.356;2022-10-31T04:40:26;10.48;;;4.00;;
56760;SDS011;42633;44.494;11.356;2022-10-31T04:43:55;7.95;;;4.28;;
56760;SDS011;42633;44.494;11.356;2022-10-31T04:55:03;9.02;;;3.72;;
56760;SDS011;42633;44.494;11.356;2022-10-31T04:59:09;8.90;;;4.03;;
56760;SDS011;42633;44.494;11.356;2022-10-31T05:02:30;8.60;;;3.63;;
56760;SDS011;42633;44.494;11.356;2022-10-31T05:05:37;9.55;;;3.63;;
56760;SDS011;42633;44.494;11.356;2022-10-31T05:08:55;6.72;;;3.75;;
56760;SDS011;42633;44.494;11.356;2022-10-31T05:12:01;7.45;;;3.50;;
56760;SDS011;42633;44.494;11.356;2022-10-31T05:15:34;8.50;;;3.70;;
56760;SDS011;42633;44.494;11.356;2022-10-31T05:19:52;5.75;;;3.22;;
56760;SDS011;42633;44.494;11.356;2022-10-31T05:23:13;7.85;;;3.63;;
56760;SDS011;42633;44.494;11.356;2022-10-31T05:26:23;6.60;;;3.25;;
56760;SDS011;42633;44.494;11.356;2022-10-31T05:29:32;6.85;;;2.95;;
56760;SDS011;42633;44.494;11.356;2022-10-31T05:32:54;7.90;;;3.33;;
56760;SDS011;42633;44.494;11.356;2022-10-31T05:36:22;6.95;;;3.83;;
56760;SDS011;42633;44.494;11.356;2022-10-31T05:39:39;7.32;;;3.35;;
56760;SDS011;42633;44.494;11.356;2022-10-31T05:42:52;9.15;;;3.28;;
56760;SDS011;42633;44.494;11.356;2022-10-31T05:46:00;8.70;;;3.97;;
56760;SDS011;42633;44.494;11.356;2022-10-31T05:49:29;9.23;;;4.50;;
56760;SDS011;42633;44.494;11.356;2022-10-31T05:53:12;12.02;;;4.90;;
56760;SDS011;42633;44.494;11.356;2022-10-31T05:56:17;7.82;;;3.78;;
56760;SDS011;42633;44.494;11.356;2022-10-31T05:59:21;7.10;;;3.50;;
56760;SDS011;42633;44.494;11.356;2022-10-31T06:02:27;7.03;;;3.42;;
56760;SDS011;42633;44.494;11.356;2022-10-31T06:05:55;9.95;;;3.92;;
56760;SDS011;42633;44.494;11.356;2022-10-31T06:09:10;7.72;;;3.80;;
56760;SDS011;42633;44.494;11.356;2022-10-31T06:12:17;13.02;;;3.58;;
56760;SDS011;42633;44.494;11.356;2022-10-31T06:15:42;6.80;;;3.45;;
56760;SDS011;42633;44.494;11.356;2022-10-31T06:18:47;8.27;;;3.45;;
56760;SDS011;42633;44.494;11.356;2022-10-31T06:21:53;7.32;;;4.13;;
56760;SDS011;42633;44.494;11.356;2022-10-31T06:24:58;5.38;;;2.85;;
56760;SDS011;42633;44.494;11.356;2022-10-31T06:31:33;7.47;;;3.45;;
56760;SDS011;42633;44.494;11.356;2022-10-31T06:34:41;12.32;;;3.28;;
56760;SDS011;42633;44.494;11.356;2022-10-31T06:37:53;11.20;;;3.45;;
56760;SDS011;42633;44.494;11.356;2022-10-31T06:41:08;12.63;;;3.25;;
56760;SDS011;42633;44.494;11.356;2022-10-31T06:44:19;9.23;;;3.13;;
56760;SDS011;42633;44.494;11.356;2022-10-31T06:47:36;9.93;;;3.37;;
56760;SDS011;42633;44.494;11.356;2022-10-31T06:50:46;7.75;;;3.22;;
56760;SDS011;42633;44.494;11.356;2022-10-31T06:53:51;9.15;;;2.58;;
56760;SDS011;42633;44.494;11.356;2022-10-31T07:00:39;11.38;;;3.38;;
56760;SDS011;42633;44.494;11.356;2022-10-31T07:03:44;5.27;;;2.60;;
56760;SDS011;42633;44.494;11.356;2022-10-31T07:06:50;10.43;;;2.88;;
56760;SDS011;42633;44.494;11.356;2022-10-31T07:09:56;10.20;;;3.65;;
56760;SDS011;42633;44.494;11.356;2022-10-31T07:13:21;10.65;;;4.55;;
56760;SDS011;42633;44.494;11.356;2022-10-31T07:16:31;7.10;;;3.70;;
56760;SDS011;42633;44.494;11.356;2022-10-31T07:19:35;11.77;;;4.10;;
56760;SDS011;42633;44.494;11.356;2022-10-31T07:22:42;7.97;;;3.47;;
56760;SDS011;42633;44.494;11.356;2022-10-31T07:25:46;10.68;;;3.35;;
56760;SDS011;42633;44.494;11.356;2022-10-31T07:29:03;8.38;;;3.10;;
56760;SDS011;42633;44.494;11.356;2022-10-31T07:32:07;7.47;;;2.90;;
56760;SDS011;42633;44.494;11.356;2022-10-31T07:38:24;8.85;;;3.70;;
56760;SDS011;42633;44.494;11.356;2022-10-31T07:41:28;12.30;;;4.03;;
56760;SDS011;42633;44.494;11.356;2022-10-31T07:44:33;7.78;;;3.38;;
56760;SDS011;42633;44.494;11.356;2022-10-31T07:47:56;6.60;;;3.20;;
56760;SDS011;42633;44.494;11.356;2022-10-31T07:51:39;6.80;;;3.88;;
56760;SDS011;42633;44.494;11.356;2022-10-31T07:55:01;7.45;;;2.88;;
56760;SDS011;42633;44.494;11.356;2022-10-31T07:58:13;17.90;;;5.03;;
56760;SDS011;42633;44.494;11.356;2022-10-31T08:01:19;11.23;;;3.72;;
56760;SDS011;42633;44.494;11.356;2022-10-31T08:04:37;7.30;;;3.47;;
56760;SDS011;42633;44.494;11.356;2022-10-31T08:08:03;12.15;;;3.70;;
56760;SDS011;42633;44.494;11.356;2022-10-31T08:11:08;6.15;;;2.95;;
56760;SDS011;42633;44.494;11.356;2022-10-31T08:14:12;10.18;;;3.33;;
56760;SDS011;42633;44.494;11.356;2022-10-31T08:17:16;15.05;;;6.50;;
56760;SDS011;42633;44.494;11.356;2022-10-31T08:20:28;8.63;;;4.60;;
56760;SDS011;42633;44.494;11.356;2022-10-31T08:23:32;7.85;;;4.30;;
56760;SDS011;42633;44.494;11.356;2022-10-31T08:26:37;6.88;;;4.00;;
56760;SDS011;42633;44.494;11.356;2022-10-31T08:29:44;10.88;;;3.67;;
56760;SDS011;42633;44.494;11.356;2022-10-31T08:32:59;8.73;;;4.07;;
56760;SDS011;42633;44.494;11.356;2022-10-31T08:36:46;8.90;;;3.85;;
56760;SDS011;42633;44.494;11.356;2022-10-31T08:39:57;7.65;;;3.22;;
56760;SDS011;42633;44.494;11.356;2022-10-31T08:43:03;11.10;;;3.35;;
56760;SDS011;42633;44.494;11.356;2022-10-31T08:46:09;11.70;;;3.70;;
56760;SDS011;42633;44.494;11.356;2022-10-31T08:49:15;9.23;;;3.60;;
56760;SDS011;42633;44.494;11.356;2022-10-31T08:52:24;7.72;;;3.25;;
56760;SDS011;42633;44.494;11.356;2022-10-31T08:55:35;7.15;;;3.15;;
56760;SDS011;42633;44.494;11.356;2022-10-31T08:58:45;9.25;;;3.75;;
56760;SDS011;42633;44.494;11.356;2022-10-31T09:01:50;10.10;;;3.58;;
56760;SDS011;42633;44.494;11.356;2022-10-31T09:04:55;17.05;;;4.85;;
56760;SDS011;42633;44.494;11.356;2022-10-31T09:08:01;14.38;;;4.55;;
56760;SDS011;42633;44.494;11.356;2022-10-31T09:11:07;9.13;;;4.25;;
56760;SDS011;42633;44.494;11.356;2022-10-31T09:14:30;10.38;;;3.85;;
56760;SDS011;42633;44.494;11.356;2022-10-31T09:17:53;19.33;;;4.32;;
56760;SDS011;42633;44.494;11.356;2022-10-31T09:21:21;10.88;;;4.68;;
56760;SDS011;42633;44.494;11.356;2022-10-31T09:24:25;13.27;;;5.75;;
56760;SDS011;42633;44.494;11.356;2022-10-31T09:27:34;12.07;;;5.60;;
56760;SDS011;42633;44.494;11.356;2022-10-31T09:30:39;15.10;;;5.90;;
56760;SDS011;42633;44.494;11.356;2022-10-31T09:33:45;13.95;;;5.43;;
56760;SDS011;42633;44.494;11.356;2022-10-31T09:37:16;11.98;;;4.78;;
56760;SDS011;42633;44.494;11.356;2022-10-31T09:40:20;12.30;;;4.40;;
56760;SDS011;42633;44.494;11.356;2022-10-31T09:47:31;11.05;;;4.50;;
56760;SDS011;42633;44.494;11.356;2022-10-31T09:54:59;13.07;;;5.63;;
56760;SDS011;42633;44.494;11.356;2022-10-31T09:58:30;9.00;;;4.88;;
56760;SDS011;42633;44.494;11.356;2022-10-31T10:01:45;13.75;;;5.18;;
56760;SDS011;42633;44.494;11.356;2022-10-31T10:04:58;14.48;;;6.43;;
56760;SDS011;42633;44.494;11.356;2022-10-31T10:08:12;10.77;;;5.00;;
56760;SDS011;42633;44.494;11.356;2022-10-31T10:22:31;9.47;;;4.83;;
56760;SDS011;42633;44.494;11.356;2022-10-31T10:25:39;12.32;;;5.47;;
56760;SDS011;42633;44.494;11.356;2022-10-31T10:28:54;17.88;;;5.95;;
56760;SDS011;42633;44.494;11.356;2022-10-31T10:32:23;13.23;;;6.10;;
56760;SDS011;42633;44.494;11.356;2022-10-31T10:35:32;16.48;;;5.93;;
56760;SDS011;42633;44.494;11.356;2022-10-31T10:38:41;15.27;;;6.20;;
56760;SDS011;42633;44.494;11.356;2022-10-31T10:41:57;13.37;;;7.30;;
56760;SDS011;42633;44.494;11.356;2022-10-31T10:45:24;16.52;;;7.60;;
56760;SDS011;42633;44.494;11.356;2022-10-31T10:49:26;17.08;;;8.10;;
56760;SDS011;42633;44.494;11.356;2022-10-31T10:58:59;17.15;;;8.75;;
56760;SDS011;42633;44.494;11.356;2022-10-31T11:02:08;24.38;;;9.32;;
56760;SDS011;42633;44.494;11.356;2022-10-31T11:05:25;14.75;;;7.85;;
56760;SDS011;42633;44.494;11.356;2022-10-31T11:08:46;16.55;;;8.52;;
56760;SDS011;42633;44.494;11.356;2022-10-31T11:11:51;17.25;;;8.00;;
56760;SDS011;42633;44.494;11.356;2022-10-31T11:14:57;15.70;;;7.53;;
56760;SDS011;42633;44.494;11.356;2022-10-31T11:18:03;19.10;;;8.35;;
56760;SDS011;42633;44.494;11.356;2022-10-31T11:21:19;14.82;;;8.20;;
56760;SDS011;42633;44.494;11.356;2022-10-31T11:24:38;20.58;;;11.88;;
56760;SDS011;42633;44.494;11.356;2022-10-31T11:27:44;19.63;;;9.65;;
56760;SDS011;42633;44.494;11.356;2022-10-31T11:30:52;21.08;;;8.52;;
56760;SDS011;42633;44.494;11.356;2022-10-31T11:34:05;16.60;;;7.43;;
56760;SDS011;42633;44.494;11.356;2022-10-31T11:37:24;25.03;;;12.27;;
56760;SDS011;42633;44.494;11.356;2022-10-31T11:40:31;16.65;;;7.43;;
56760;SDS011;42633;44.494;11.356;2022-10-31T11:43:36;13.88;;;7.60;;
56760;SDS011;42633;44.494;11.356;2022-10-31T11:46:48;14.20;;;7.13;;
56760;SDS011;42633;44.494;11.356;2022-10-31T11:49:55;22.58;;;8.63;;
56760;SDS011;42633;44.494;11.356;2022-10-31T11:53:00;20.23;;;9.40;;
56760;SDS011;42633;44.494;11.356;2022-10-31T11:59:18;23.20;;;8.38;;
56760;SDS011;42633;44.494;11.356;2022-10-31T12:02:36;17.75;;;7.90;;
56760;SDS011;42633;44.494;11.356;2022-10-31T12:05:42;16.08;;;7.95;;
56760;SDS011;42633;44.494;11.356;2022-10-31T12:08:55;13.88;;;6.90;;
56760;SDS011;42633;44.494;11.356;2022-10-31T12:15:35;19.73;;;9.13;;
56760;SDS011;42633;44.494;11.356;2022-10-31T12:22:28;16.65;;;8.38;;
56760;SDS011;42633;44.494;11.356;2022-10-31T12:29:45;23.25;;;9.48;;
56760;SDS011;42633;44.494;11.356;2022-10-31T13:00:24;22.25;;;12.18;;
56760;SDS011;42633;44.494;11.356;2022-10-31T13:03:48;21.75;;;12.02;;
56760;SDS011;42633;44.494;11.356;2022-10-31T13:07:08;28.25;;;12.63;;
56760;SDS011;42633;44.494;11.356;2022-10-31T13:14:07;19.88;;;11.98;;
56760;SDS011;42633;44.494;11.356;2022-10-31T13:17:27;19.48;;;10.48;;
56760;SDS011;42633;44.494;11.356;2022-10-31T13:20:34;25.73;;;10.32;;
56760;SDS011;42633;44.494;11.356;2022-10-31T13:23:44;20.35;;;9.43;;
56760;SDS011;42633;44.494;11.356;2022-10-31T13:26:56;18.83;;;10.40;;
56760;SDS011;42633;44.494;11.356;2022-10-31T13:30:12;25.20;;;11.10;;
56760;SDS011;42633;44.494;11.356;2022-10-31T13:33:39;20.52;;;10.32;;
56760;SDS011;42633;44.494;11.356;2022-10-31T13:36:48;28.30;;;12.43;;
56760;SDS011;42633;44.494;11.356;2022-10-31T13:40:04;23.48;;;11.80;;
56760;SDS011;42633;44.494;11.356;2022-10-31T13:44:18;25.08;;;12.77;;
56760;SDS011;42633;44.494;11.356;2022-10-31T13:47:35;22.97;;;11.37;;
56760;SDS011;42633;44.494;11.356;2022-10-31T14:13:04;22.85;;;10.27;;
56760;SDS011;42633;44.494;11.356;2022-10-31T14:16:17;26.80;;;12.80;;
56760;SDS011;42633;44.494;11.356;2022-10-31T14:19:31;19.65;;;11.77;;
56760;SDS011;42633;44.494;11.356;2022-10-31T14:22:39;52.83;;;33.72;;
56760;SDS011;42633;44.494;11.356;2022-10-31T14:25:44;21.33;;;10.57;;
56760;SDS011;42633;44.494;11.356;2022-10-31T14:28:50;25.50;;;11.95;;
56760;SDS011;42633;44.494;11.356;2022-10-31T14:35:09;31.75;;;15.07;;
56760;SDS011;42633;44.494;11.356;2022-10-31T14:38:29;23.63;;;13.65;;
56760;SDS011;42633;44.494;11.356;2022-10-31T14:52:27;38.60;;;23.05;;
56760;SDS011;42633;44.494;11.356;2022-10-31T14:55:32;27.70;;;12.18;;
56760;SDS011;42633;44.494;11.356;2022-10-31T14:58:43;28.00;;;14.00;;
56760;SDS011;42633;44.494;11.356;2022-10-31T15:01:56;21.85;;;11.63;;
56760;SDS011;42633;44.494;11.356;2022-10-31T15:05:11;17.25;;;12.23;;
56760;SDS011;42633;44.494;11.356;2022-10-31T15:08:29;27.75;;;14.80;;
56760;SDS011;42633;44.494;11.356;2022-10-31T15:11:42;31.20;;;17.95;;
56760;SDS011;42633;44.494;11.356;2022-10-31T15:14:46;34.63;;;19.58;;
56760;SDS011;42633;44.494;11.356;2022-10-31T15:17:56;21.38;;;12.45;;
56760;SDS011;42633;44.494;11.356;2022-10-31T15:21:02;25.48;;;12.57;;
56760;SDS011;42633;44.494;11.356;2022-10-31T15:24:10;29.08;;;12.38;;
56760;SDS011;42633;44.494;11.356;2022-10-31T15:27:22;21.88;;;10.07;;
56760;SDS011;42633;44.494;11.356;2022-10-31T15:33:42;25.48;;;10.82;;
56760;SDS011;42633;44.494;11.356;2022-10-31T15:36:51;22.45;;;11.63;;
56760;SDS011;42633;44.494;11.356;2022-10-31T15:40:05;14.70;;;9.38;;
56760;SDS011;42633;44.494;11.356;2022-10-31T15:43:15;20.70;;;12.10;;
56760;SDS011;42633;44.494;11.356;2022-10-31T15:46:21;46.85;;;27.98;;
56760;SDS011;42633;44.494;11.356;2022-10-31T15:49:32;29.30;;;16.58;;
56760;SDS011;42633;44.494;11.356;2022-10-31T15:52:44;26.50;;;11.18;;
56760;SDS011;42633;44.494;11.356;2022-10-31T15:55:55;34.00;;;12.60;;
56760;SDS011;42633;44.494;11.356;2022-10-31T15:59:02;21.27;;;10.05;;
56760;SDS011;42633;44.494;11.356;2022-10-31T16:02:10;33.05;;;12.55;;
56760;SDS011;42633;44.494;11.356;2022-10-31T16:05:18;29.77;;;11.07;;
56760;SDS011;42633;44.494;11.356;2022-10-31T16:08:31;36.03;;;13.65;;
56760;SDS011;42633;44.494;11.356;2022-10-31T16:11:39;39.67;;;14.75;;
56760;SDS011;42633;44.494;11.356;2022-10-31T16:14:47;28.70;;;13.07;;
56760;SDS011;42633;44.494;11.356;2022-10-31T16:17:55;18.70;;;10.20;;
56760;SDS011;42633;44.494;11.356;2022-10-31T16:21:03;28.73;;;13.18;;
56760;SDS011;42633;44.494;11.356;2022-10-31T16:27:23;22.33;;;10.98;;
56760;SDS011;42633;44.494;11.356;2022-10-31T16:30:39;22.17;;;8.73;;
56760;SDS011;42633;44.494;11.356;2022-10-31T16:33:46;20.40;;;10.15;;
56760;SDS011;42633;44.494;11.356;2022-10-31T16:36:50;16.02;;;8.77;;
56760;SDS011;42633;44.494;11.356;2022-10-31T16:39:56;23.35;;;11.63;;
56760;SDS011;42633;44.494;11.356;2022-10-31T16:43:00;23.60;;;10.75;;
56760;SDS011;42633;44.494;11.356;2022-10-31T16:46:05;20.35;;;9.75;;
56760;SDS011;42633;44.494;11.356;2022-10-31T16:49:09;26.30;;;11.57;;
56760;SDS011;42633;44.494;11.356;2022-10-31T16:52:14;16.80;;;9.23;;
56760;SDS011;42633;44.494;11.356;2022-10-31T16:55:24;21.15;;;9.55;;
56760;SDS011;42633;44.494;11.356;2022-10-31T16:58:32;21.63;;;9.63;;
56760;SDS011;42633;44.494;11.356;2022-10-31T17:01:39;22.30;;;11.02;;
56760;SDS011;42633;44.494;11.356;2022-10-31T17:04:46;24.92;;;11.55;;
56760;SDS011;42633;44.494;11.356;2022-10-31T17:07:50;20.02;;;9.77;;
56760;SDS011;42633;44.494;11.356;2022-10-31T17:10:56;22.23;;;9.90;;
56760;SDS011;42633;44.494;11.356;2022-10-31T17:14:02;27.10;;;12.23;;
56760;SDS011;42633;44.494;11.356;2022-10-31T17:17:08;21.50;;;9.88;;
56760;SDS011;42633;44.494;11.356;2022-10-31T17:20:20;19.83;;;9.38;;
56760;SDS011;42633;44.494;11.356;2022-10-31T17:23:26;19.42;;;9.75;;
56760;SDS011;42633;44.494;11.356;2022-10-31T17:26:31;20.33;;;9.50;;
56760;SDS011;42633;44.494;11.356;2022-10-31T17:29:36;25.85;;;11.52;;
56760;SDS011;42633;44.494;11.356;2022-10-31T17:32:40;24.05;;;12.00;;
56760;SDS011;42633;44.494;11.356;2022-10-31T17:35:46;21.92;;;9.80;;
56760;SDS011;42633;44.494;11.356;2022-10-31T17:38:50;22.00;;;11.73;;
56760;SDS011;42633;44.494;11.356;2022-10-31T17:41:54;21.92;;;9.57;;
56760;SDS011;42633;44.494;11.356;2022-10-31T17:44:58;27.77;;;11.05;;
56760;SDS011;42633;44.494;11.356;2022-10-31T17:48:03;21.17;;;11.23;;
56760;SDS011;42633;44.494;11.356;2022-10-31T17:51:07;20.63;;;10.88;;
56760;SDS011;42633;44.494;11.356;2022-10-31T17:54:14;21.92;;;11.32;;
56760;SDS011;42633;44.494;11.356;2022-10-31T17:57:31;20.42;;;11.52;;
56760;SDS011;42633;44.494;11.356;2022-10-31T18:00:39;21.58;;;11.02;;
56760;SDS011;42633;44.494;11.356;2022-10-31T18:03:43;19.50;;;9.60;;
56760;SDS011;42633;44.494;11.356;2022-10-31T18:06:48;23.13;;;10.50;;
56760;SDS011;42633;44.494;11.356;2022-10-31T18:09:53;23.75;;;12.02;;
56760;SDS011;42633;44.494;11.356;2022-10-31T18:12:57;20.85;;;11.02;;
56760;SDS011;42633;44.494;11.356;2022-10-31T18:16:09;25.40;;;10.50;;
56760;SDS011;42633;44.494;11.356;2022-10-31T18:19:15;22.75;;;11.07;;
56760;SDS011;42633;44.494;11.356;2022-10-31T18:22:19;22.58;;;11.05;;
56760;SDS011;42633;44.494;11.356;2022-10-31T18:25:23;16.23;;;9.63;;
56760;SDS011;42633;44.494;11.356;2022-10-31T18:28:27;18.88;;;8.85;;
56760;SDS011;42633;44.494;11.356;2022-10-31T18:31:31;20.10;;;10.43;;
56760;SDS011;42633;44.494;11.356;2022-10-31T18:34:35;19.40;;;10.45;;
56760;SDS011;42633;44.494;11.356;2022-10-31T18:37:39;18.63;;;10.27;;
56760;SDS011;42633;44.494;11.356;2022-10-31T18:40:43;28.08;;;13.95;;
56760;SDS011;42633;44.494;11.356;2022-10-31T18:43:47;23.23;;;11.85;;
56760;SDS011;42633;44.494;11.356;2022-10-31T18:46:52;23.23;;;11.75;;
56760;SDS011;42633;44.494;11.356;2022-10-31T18:49:56;17.20;;;9.82;;
56760;SDS011;42633;44.494;11.356;2022-10-31T18:53:01;24.35;;;9.90;;
56760;SDS011;42633;44.494;11.356;2022-10-31T18:56:08;17.23;;;9.48;;
56760;SDS011;42633;44.494;11.356;2022-10-31T18:59:14;23.40;;;10.88;;
56760;SDS011;42633;44.494;11.356;2022-10-31T19:02:18;21.50;;;11.00;;
56760;SDS011;42633;44.494;11.356;2022-10-31T19:05:23;25.42;;;11.88;;
56760;SDS011;42633;44.494;11.356;2022-10-31T19:08:27;25.77;;;12.23;;
56760;SDS011;42633;44.494;11.356;2022-10-31T19:11:32;21.92;;;12.60;;
56760;SDS011;42633;44.494;11.356;2022-10-31T19:14:37;26.00;;;14.93;;
56760;SDS011;42633;44.494;11.356;2022-10-31T19:17:41;25.25;;;12.90;;
56760;SDS011;42633;44.494;11.356;2022-10-31T19:20:45;40.38;;;22.60;;
56760;SDS011;42633;44.494;11.356;2022-10-31T19:23:51;39.47;;;27.42;;
56760;SDS011;42633;44.494;11.356;2022-10-31T19:26:56;37.00;;;21.60;;
56760;SDS011;42633;44.494;11.356;2022-10-31T19:30:03;33.15;;;17.00;;
56760;SDS011;42633;44.494;11.356;2022-10-31T19:33:07;25.67;;;12.52;;
56760;SDS011;42633;44.494;11.356;2022-10-31T19:36:13;22.65;;;13.73;;
56760;SDS011;42633;44.494;11.356;2022-10-31T19:39:19;26.75;;;15.52;;
56760;SDS011;42633;44.494;11.356;2022-10-31T19:42:23;25.00;;;15.60;;
56760;SDS011;42633;44.494;11.356;2022-10-31T19:45:28;26.83;;;14.63;;
56760;SDS011;42633;44.494;11.356;2022-10-31T19:48:37;21.70;;;13.32;;
56760;SDS011;42633;44.494;11.356;2022-10-31T19:51:42;18.23;;;10.40;;
56760;SDS011;42633;44.494;11.356;2022-10-31T19:54:46;19.45;;;10.25;;
56760;SDS011;42633;44.494;11.356;2022-10-31T19:57:50;16.58;;;8.32;;
56760;SDS011;42633;44.494;11.356;2022-10-31T20:00:55;19.67;;;11.57;;
56760;SDS011;42633;44.494;11.356;2022-10-31T20:03:59;18.67;;;11.65;;
56760;SDS011;42633;44.494;11.356;2022-10-31T20:07:05;17.60;;;11.63;;
56760;SDS011;42633;44.494;11.356;2022-10-31T20:10:10;19.10;;;9.65;;
56760;SDS011;42633;44.494;11.356;2022-10-31T20:13:14;15.45;;;7.95;;
56760;SDS011;42633;44.494;11.356;2022-10-31T20:16:21;14.38;;;8.10;;
56760;SDS011;42633;44.494;11.356;2022-10-31T20:19:29;14.60;;;7.38;;
56760;SDS011;42633;44.494;11.356;2022-10-31T20:22:33;22.17;;;11.43;;
56760;SDS011;42633;44.494;11.356;2022-10-31T20:25:47;20.75;;;9.75;;
56760;SDS011;42633;44.494;11.356;2022-10-31T20:28:51;16.52;;;9.43;;
56760;SDS011;42633;44.494;11.356;2022-10-31T20:31:59;17.45;;;9.02;;
56760;SDS011;42633;44.494;11.356;2022-10-31T20:35:06;21.77;;;10.75;;
56760;SDS011;42633;44.494;11.356;2022-10-31T20:38:11;20.45;;;10.38;;
56760;SDS011;42633;44.494;11.356;2022-10-31T20:41:15;17.27;;;10.45;;
56760;SDS011;42633;44.494;11.356;2022-10-31T20:44:21;20.35;;;12.32;;
56760;SDS011;42633;44.494;11.356;2022-10-31T20:47:25;15.68;;;8.85;;
56760;SDS011;42633;44.494;11.356;2022-10-31T20:50:29;12.63;;;6.93;;
56760;SDS011;42633;44.494;11.356;2022-10-31T20:53:33;17.23;;;11.18;;
56760;SDS011;42633;44.494;11.356;2022-10-31T20:56:38;12.32;;;6.15;;
56760;SDS011;42633;44.494;11.356;2022-10-31T20:59:43;18.60;;;10.32;;
56760;SDS011;42633;44.494;11.356;2022-10-31T21:02:48;11.80;;;6.65;;
56760;SDS011;42633;44.494;11.356;2022-10-31T21:05:53;12.00;;;6.78;;
56760;SDS011;42633;44.494;11.356;2022-10-31T21:08:58;15.00;;;6.68;;
56760;SDS011;42633;44.494;11.356;2022-10-31T21:12:02;10.90;;;5.20;;
56760;SDS011;42633;44.494;11.356;2022-10-31T21:15:07;8.13;;;4.88;;
56760;SDS011;42633;44.494;11.356;2022-10-31T21:18:12;12.35;;;4.97;;
56760;SDS011;42633;44.494;11.356;2022-10-31T21:21:19;9.80;;;5.40;;
56760;SDS011;42633;44.494;11.356;2022-10-31T21:24:24;12.68;;;6.45;;
56760;SDS011;42633;44.494;11.356;2022-10-31T21:27:31;12.50;;;4.50;;
56760;SDS011;42633;44.494;11.356;2022-10-31T21:30:41;11.20;;;5.10;;